Lavista, Nebraska
Current Conditions -  °F | °C
As of 7:55 PM on Saturday 20 Dec 2014 (Local Time) from KMLE Reporting Station
Overcast Overcast  
Wind Chill: 29°   Ceiling: 1000
Heat Index: 35°   Visibility: 7mi
Dew Point: 32°   Wind: 8mph
Humidity: 89%   Direction: 150°SSE
Pressure: 30.06"   Gusts: NA
Location:  41.166°N, 96.0444°W
Report Text: KMLE 210155Z AUTO 15007KT 7SM OVC010 02/00 A3006 RMK AO2 T00170001
Loading
Personal Weather Stations






























Interactive Weather Map New forecast layout! Learn more

10-Day Weather Forecast

Advertisements
Track Severe Weather on mobile